Flight Track Log - Related Links

Times and Time Zones

All times are in EDT time to prevent confusion due to time zone crossing. See the TCF6008 flight status page for this flight to view local times or setup timezone preferences in your user account.

Time Position Orientation Groundspeed Altitude Reporting Facility
EDT Latitude Longitude Course Direction KTS MPH feet Rate Location/Type
Mon 02:39:29 PM 40.8000 -73.9000 270° West 160 184 2,600  Level New York TRACON
Mon 02:40:29 PM 40.8500 -73.9333 333° Northwest 207 238 5,700 3,450 Climbing New York TRACON
Mon 02:41:00 PM 40.6559 -74.2271 242° Southwest  Level FlightAware Approximate
Mon 02:41:29 PM 40.8333 -74.0167 255° West 219 252 9,500  Level New York TRACON
Mon 02:42:00 PM 40.6091 -74.3439 242° Southwest  Level FlightAware Approximate
Mon 02:42:29 PM 40.8000 -74.1000 242° Southwest 263 303 12,700  Level New York TRACON
Mon 02:43:00 PM 40.5676 -74.4639 246° West  Level FlightAware Approximate
Mon 02:43:29 PM 40.7667 -74.1833 242° Southwest 297 342 14,900  Level New York TRACON
Mon 02:44:00 PM 40.5333 -74.5863 270° West  Level FlightAware Approximate
Mon 02:45:31 PM 40.6797 -74.3722 239° Southwest 306 352 17,000  Level New York Center
Mon 02:46:31 PM 40.6397 -74.4522 237° Southwest 300 345 18,600 2,441 Climbing New York Center
Mon 02:47:29 PM 40.5911 -74.5397 234° Southwest 307 353 21,800 3,025 Climbing New York Center
Mon 02:48:30 PM 40.5403 -74.6269 233° Southwest 302 348 24,600 2,607 Climbing New York Center
Mon 02:49:31 PM 40.4917 -74.7117 233° Southwest 302 348 27,100 1,686 Climbing New York Center
Mon 02:50:31 PM 40.4408 -74.7933 231° Southwest 302 348 28,000 446 Climbing New York Center
Mon 02:51:32 PM 40.3944 -74.8750 233° Southwest 297 342 28,000  Level New York Center
Mon 02:52:29 PM 40.3433 -74.9619 232° Southwest 297 342 28,000  Level New York Center
Mon 02:53:29 PM 40.2947 -75.0433 232° Southwest 292 336 28,000  Level New York Center
Mon 02:54:30 PM 40.2478 -75.1247 233° Southwest 287 330 28,000  Level New York Center
Mon 02:55:30 PM 40.1989 -75.2058 232° Southwest 287 330 28,000  Level New York Center
Mon 02:56:31 PM 40.1478 -75.2894 231° Southwest 287 330 28,000  Level New York Center
Mon 02:57:31 PM 40.1008 -75.3733 234° Southwest 287 330 28,000  Level New York Center
Mon 02:58:30 PM 40.0519 -75.4542 232° Southwest 287 330 28,000  Level New York Center
Mon 02:59:30 PM 40.0025 -75.5375 232° Southwest 287 330 28,000  Level New York Center
Mon 03:00:31 PM 39.9533 -75.6181 231° Southwest 287 330 28,000  Level New York Center
Mon 03:01:32 PM 39.9042 -75.6986 232° Southwest 287 330 28,000  Level New York Center
Mon 03:02:30 PM 39.8461 -75.7919 231° Southwest 287 330 28,000  Level New York Center
Mon 03:03:32 PM 39.7947 -75.8719 230° Southwest 292 336 28,000  Level New York Center
Mon 03:04:30 PM 39.7408 -75.9572 231° Southwest 292 336 28,000 458 Level New York Center
Mon 03:05:30 PM 39.6872 -76.0422 231° Southwest 302 348 28,900 686 Climbing New York Center
Mon 03:07:25 PM 39.5869 -76.2028 231° Southwest 314 361 30,000 377 Climbing Washington Center
Mon 03:08:25 PM 39.5283 -76.2911 229° Southwest 321 369 30,000  Level Washington Center
Mon 03:09:26 PM 39.4736 -76.3792 231° Southwest 326 375 30,000  Level Washington Center
Mon 03:10:24 PM 39.4125 -76.4700 229° Southwest 326 375 30,000  Level Washington Center
Mon 03:11:24 PM 39.3514 -76.5578 228° Southwest 332 382 30,000  Level Washington Center
Mon 03:12:25 PM 39.2922 -76.6508 231° Southwest 332 382 30,000  Level Washington Center
Mon 03:13:25 PM 39.2350 -76.7439 232° Southwest 332 382 30,000  Level Washington Center
Mon 03:14:26 PM 39.1781 -76.8339 231° Southwest 332 382 30,000  Level Washington Center
Mon 03:15:24 PM 39.1167 -76.9239 229° Southwest 332 382 30,000  Level Washington Center
Mon 03:16:25 PM 39.0572 -77.0164 230° Southwest 337 388 30,000  Level Washington Center
Mon 03:17:26 PM 38.9872 -77.1006 223° Southwest 337 388 30,000  Level Washington Center
Mon 03:18:26 PM 38.9175 -77.1792 221° Southwest 337 388 30,000  Level Washington Center
Mon 03:19:24 PM 38.8392 -77.2653 221° Southwest 343 395 30,000  Level Washington Center
Mon 03:20:25 PM 38.7653 -77.3436 220° Southwest 343 395 30,000  Level Washington Center
Mon 03:21:25 PM 38.6950 -77.4244 222° Southwest 343 395 30,000  Level Washington Center
Mon 03:22:25 PM 38.6208 -77.5022 219° Southwest 348 400 30,000  Level Washington Center
Mon 03:23:24 PM 38.5508 -77.5800 221° Southwest 348 400 30,000  Level Washington Center
Mon 03:24:24 PM 38.4767 -77.6603 220° Southwest 348 400 30,000  Level Washington Center
Mon 03:25:25 PM 38.4022 -77.7403 220° Southwest 348 400 30,000  Level Washington Center
Mon 03:26:26 PM 38.3278 -77.8175 219° Southwest 348 400 30,000  Level Washington Center
Mon 03:27:24 PM 38.2553 -77.8975 221° Southwest 348 400 30,000  Level Washington Center
Mon 03:28:24 PM 38.1808 -77.9797 221° Southwest 348 400 30,000  Level Washington Center
Mon 03:29:26 PM 38.1061 -78.0564 219° Southwest 348 400 30,000 -98 Level Washington Center
Mon 03:30:26 PM 38.0317 -78.1383 221° Southwest 353 406 29,800 -559 Descending Washington Center
Mon 03:31:24 PM 37.9756 -78.2156 227° Southwest 353 406 28,900 -915 Descending Washington Center
Mon 03:32:24 PM 37.9111 -78.3106 229° Southwest 348 400 28,000 -446 Descending Washington Center
Mon 03:33:25 PM 37.8397 -78.4106 228° Southwest 354 407 28,000  Level Washington Center
Mon 03:34:26 PM 37.7772 -78.5031 229° Southwest 354 407 28,000  Level Washington Center
Mon 03:35:24 PM 37.7122 -78.5950 228° Southwest 354 407 28,000  Level Washington Center
Mon 03:36:24 PM 37.6475 -78.6867 228° Southwest 354 407 28,000  Level Washington Center
Mon 03:37:25 PM 37.5869 -78.7681 227° Southwest 354 407 28,000 -49 Level Washington Center
Mon 03:38:26 PM 37.5217 -78.8650 230° Southwest 359 413 27,900 -655 Descending Washington Center
Mon 03:39:24 PM 37.4544 -78.9536 226° Southwest 359 413 26,700 -1,361 Descending Washington Center
Mon 03:40:25 PM 37.3894 -79.0475 229° Southwest 359 413 25,200 -1,488 Descending Washington Center
Mon 03:41:25 PM 37.3242 -79.1386 228° Southwest 359 413 23,700 -1,587 Descending Washington Center
Mon 03:42:26 PM 37.2544 -79.2369 228° Southwest 359 413 22,000 -1,462 Descending Washington Center
Mon 03:43:24 PM 37.1931 -79.3281 230° Southwest 349 402 20,800 -1,160 Descending Washington Center
Mon 03:44:25 PM 37.1339 -79.4164 230° Southwest 349 402 19,700 -1,082 Descending Washington Center
Mon 03:45:26 PM 37.0747 -79.5044 230° Southwest 349 402 18,600 -1,008 Descending Washington Center
Mon 03:46:24 PM 37.0156 -79.5900 229° Southwest 344 396 17,700 -1,008 Descending Washington Center
Mon 03:47:25 PM 36.9694 -79.6578 230° Southwest 326 375 16,600 -1,082 Descending Washington Center
Mon 03:49:00 PM 36.8768 -79.7825 229° Southwest  Level FlightAware Approximate
Mon 03:56:00 PM 36.3654 -79.9894 174° South  Level FlightAware Approximate
Mon 03:57:00 PM 36.2800 -79.9833 180° South  Level FlightAware Approximate
Mon 03:58:00 PM 36.1803 -79.9747 175° South  Level FlightAware Approximate
Mon 03:59:00 PM 36.1013 -79.9411 180° South  Level Estimated
Mon 04:00:00 PM 36.1013 -79.9411 15° North  Level Estimated
Mon 04:01:00 PM 36.1000 -79.9333 15° North  Level FlightAware Approximate
Mon 04:02:00 PM 36.1013 -79.9411 15° North  Level Estimated
Mon 04:03:00 PM 36.1000 -79.9333 15° North  Level FlightAware Approximate
Mon 04:04:00 PM 36.1013 -79.9411 15° North  Level Estimated

Login

Don't have an account? Register now (free) for customized features, flight alerts, and more!